sensor_id;sensor_type;location;lat;lon;timestamp;P1;durP1;ratioP1;P2;durP2;ratioP2
38717;SDS011;24468;52.128;9.278;2024-03-23T00:52:49;12.80;;;5.10;;
38717;SDS011;24468;52.128;9.278;2024-03-23T00:55:15;12.40;;;5.38;;
38717;SDS011;24468;52.128;9.278;2024-03-23T00:57:41;9.70;;;4.88;;
38717;SDS011;24468;52.128;9.278;2024-03-23T01:00:06;9.43;;;5.50;;
38717;SDS011;24468;52.128;9.278;2024-03-23T01:02:35;11.77;;;5.13;;
38717;SDS011;24468;52.128;9.278;2024-03-23T01:05:01;11.82;;;4.55;;
38717;SDS011;24468;52.128;9.278;2024-03-23T01:07:26;9.65;;;4.53;;
38717;SDS011;24468;52.128;9.278;2024-03-23T01:09:52;9.35;;;5.03;;
38717;SDS011;24468;52.128;9.278;2024-03-23T01:12:18;12.57;;;5.00;;
38717;SDS011;24468;52.128;9.278;2024-03-23T01:14:43;12.10;;;4.47;;
38717;SDS011;24468;52.128;9.278;2024-03-23T01:17:09;9.82;;;4.50;;
38717;SDS011;24468;52.128;9.278;2024-03-23T01:19:35;8.60;;;4.07;;
38717;SDS011;24468;52.128;9.278;2024-03-23T01:22:00;10.55;;;4.47;;
38717;SDS011;24468;52.128;9.278;2024-03-23T01:24:26;10.32;;;4.03;;
38717;SDS011;24468;52.128;9.278;2024-03-23T01:26:51;9.05;;;4.43;;
38717;SDS011;24468;52.128;9.278;2024-03-23T01:29:17;9.15;;;3.80;;
38717;SDS011;24468;52.128;9.278;2024-03-23T01:31:42;8.48;;;4.30;;
38717;SDS011;24468;52.128;9.278;2024-03-23T01:34:08;11.85;;;4.70;;
38717;SDS011;24468;52.128;9.278;2024-03-23T01:36:33;7.68;;;3.83;;
38717;SDS011;24468;52.128;9.278;2024-03-23T01:38:59;8.85;;;3.50;;
38717;SDS011;24468;52.128;9.278;2024-03-23T01:41:24;9.13;;;3.28;;
38717;SDS011;24468;52.128;9.278;2024-03-23T01:43:50;12.68;;;3.50;;
38717;SDS011;24468;52.128;9.278;2024-03-23T01:46:16;8.52;;;3.22;;
38717;SDS011;24468;52.128;9.278;2024-03-23T01:48:42;9.27;;;3.00;;
38717;SDS011;24468;52.128;9.278;2024-03-23T01:51:07;9.07;;;3.30;;
38717;SDS011;24468;52.128;9.278;2024-03-23T01:53:34;9.75;;;3.38;;
38717;SDS011;24468;52.128;9.278;2024-03-23T01:55:59;6.40;;;2.65;;
38717;SDS011;24468;52.128;9.278;2024-03-23T01:58:27;5.53;;;2.20;;
38717;SDS011;24468;52.128;9.278;2024-03-23T02:00:53;4.88;;;1.98;;
38717;SDS011;24468;52.128;9.278;2024-03-23T02:03:25;5.55;;;1.80;;
38717;SDS011;24468;52.128;9.278;2024-03-23T02:05:52;5.03;;;1.55;;
38717;SDS011;24468;52.128;9.278;2024-03-23T02:08:20;7.75;;;2.05;;
38717;SDS011;24468;52.128;9.278;2024-03-23T02:10:50;5.03;;;1.40;;
38717;SDS011;24468;52.128;9.278;2024-03-23T02:13:18;5.03;;;1.75;;
38717;SDS011;24468;52.128;9.278;2024-03-23T02:15:44;5.03;;;1.88;;
38717;SDS011;24468;52.128;9.278;2024-03-23T02:18:10;5.38;;;1.85;;
38717;SDS011;24468;52.128;9.278;2024-03-23T02:20:36;8.90;;;2.45;;
38717;SDS011;24468;52.128;9.278;2024-03-23T02:23:03;8.07;;;1.85;;
38717;SDS011;24468;52.128;9.278;2024-03-23T02:25:38;7.18;;;2.45;;
38717;SDS011;24468;52.128;9.278;2024-03-23T02:28:04;9.32;;;1.83;;
38717;SDS011;24468;52.128;9.278;2024-03-23T02:30:30;13.35;;;2.85;;
38717;SDS011;24468;52.128;9.278;2024-03-23T02:32:55;8.13;;;1.83;;
38717;SDS011;24468;52.128;9.278;2024-03-23T02:35:21;7.85;;;1.58;;
38717;SDS011;24468;52.128;9.278;2024-03-23T02:37:46;7.38;;;1.83;;
38717;SDS011;24468;52.128;9.278;2024-03-23T02:40:15;4.63;;;2.00;;
38717;SDS011;24468;52.128;9.278;2024-03-23T02:42:41;7.25;;;2.17;;
38717;SDS011;24468;52.128;9.278;2024-03-23T02:45:07;9.93;;;2.38;;
38717;SDS011;24468;52.128;9.278;2024-03-23T02:47:33;10.05;;;2.15;;
38717;SDS011;24468;52.128;9.278;2024-03-23T02:49:58;17.02;;;3.88;;
38717;SDS011;24468;52.128;9.278;2024-03-23T02:52:24;8.18;;;2.15;;
38717;SDS011;24468;52.128;9.278;2024-03-23T02:54:49;6.43;;;1.65;;
38717;SDS011;24468;52.128;9.278;2024-03-23T02:57:15;9.88;;;2.45;;
38717;SDS011;24468;52.128;9.278;2024-03-23T02:59:41;10.63;;;2.83;;
38717;SDS011;24468;52.128;9.278;2024-03-23T03:02:07;6.38;;;2.00;;
38717;SDS011;24468;52.128;9.278;2024-03-23T03:04:33;11.70;;;2.08;;
38717;SDS011;24468;52.128;9.278;2024-03-23T03:06:58;16.80;;;3.28;;
38717;SDS011;24468;52.128;9.278;2024-03-23T03:09:24;12.20;;;3.20;;
38717;SDS011;24468;52.128;9.278;2024-03-23T03:11:50;11.20;;;3.03;;
38717;SDS011;24468;52.128;9.278;2024-03-23T03:14:15;8.35;;;2.60;;
38717;SDS011;24468;52.128;9.278;2024-03-23T03:16:41;7.47;;;3.10;;
38717;SDS011;24468;52.128;9.278;2024-03-23T03:19:06;10.27;;;3.10;;
38717;SDS011;24468;52.128;9.278;2024-03-23T03:21:32;11.32;;;3.30;;
38717;SDS011;24468;52.128;9.278;2024-03-23T03:23:57;12.55;;;3.50;;
38717;SDS011;24468;52.128;9.278;2024-03-23T03:26:23;10.63;;;3.38;;
38717;SDS011;24468;52.128;9.278;2024-03-23T03:28:49;13.95;;;2.95;;
38717;SDS011;24468;52.128;9.278;2024-03-23T03:31:15;10.48;;;2.90;;
38717;SDS011;24468;52.128;9.278;2024-03-23T03:33:41;11.30;;;3.15;;
38717;SDS011;24468;52.128;9.278;2024-03-23T03:36:07;12.98;;;3.60;;
38717;SDS011;24468;52.128;9.278;2024-03-23T03:38:33;7.93;;;2.50;;
38717;SDS011;24468;52.128;9.278;2024-03-23T03:41:02;11.80;;;2.97;;
38717;SDS011;24468;52.128;9.278;2024-03-23T03:43:28;10.25;;;3.75;;
38717;SDS011;24468;52.128;9.278;2024-03-23T03:45:53;9.32;;;2.97;;
38717;SDS011;24468;52.128;9.278;2024-03-23T03:48:22;10.15;;;3.03;;
38717;SDS011;24468;52.128;9.278;2024-03-23T03:50:47;7.28;;;3.05;;
38717;SDS011;24468;52.128;9.278;2024-03-23T03:53:13;7.65;;;2.90;;
38717;SDS011;24468;52.128;9.278;2024-03-23T03:55:39;8.30;;;2.78;;
38717;SDS011;24468;52.128;9.278;2024-03-23T03:58:05;6.13;;;2.50;;
38717;SDS011;24468;52.128;9.278;2024-03-23T04:00:30;14.98;;;3.80;;
38717;SDS011;24468;52.128;9.278;2024-03-23T04:02:56;10.88;;;3.13;;
38717;SDS011;24468;52.128;9.278;2024-03-23T04:05:22;12.05;;;3.05;;
38717;SDS011;24468;52.128;9.278;2024-03-23T04:07:48;11.48;;;3.42;;
38717;SDS011;24468;52.128;9.278;2024-03-23T04:10:14;11.43;;;3.83;;
38717;SDS011;24468;52.128;9.278;2024-03-23T04:12:40;10.23;;;2.78;;
38717;SDS011;24468;52.128;9.278;2024-03-23T04:15:09;7.32;;;2.85;;
38717;SDS011;24468;52.128;9.278;2024-03-23T04:17:35;8.43;;;3.03;;
38717;SDS011;24468;52.128;9.278;2024-03-23T04:20:01;8.25;;;2.53;;
38717;SDS011;24468;52.128;9.278;2024-03-23T04:22:29;12.20;;;3.42;;
38717;SDS011;24468;52.128;9.278;2024-03-23T04:24:55;7.40;;;3.03;;
38717;SDS011;24468;52.128;9.278;2024-03-23T04:27:23;6.82;;;2.97;;
38717;SDS011;24468;52.128;9.278;2024-03-23T04:29:52;7.55;;;2.75;;
38717;SDS011;24468;52.128;9.278;2024-03-23T04:32:18;8.10;;;3.70;;
38717;SDS011;24468;52.128;9.278;2024-03-23T04:34:44;7.28;;;2.88;;
38717;SDS011;24468;52.128;9.278;2024-03-23T04:37:10;8.43;;;2.53;;
38717;SDS011;24468;52.128;9.278;2024-03-23T04:39:36;8.88;;;2.55;;
38717;SDS011;24468;52.128;9.278;2024-03-23T04:42:03;11.90;;;3.20;;
38717;SDS011;24468;52.128;9.278;2024-03-23T04:44:29;8.13;;;2.60;;
38717;SDS011;24468;52.128;9.278;2024-03-23T04:46:55;5.78;;;2.50;;
38717;SDS011;24468;52.128;9.278;2024-03-23T04:49:22;8.35;;;2.78;;
38717;SDS011;24468;52.128;9.278;2024-03-23T04:51:47;6.25;;;3.00;;
38717;SDS011;24468;52.128;9.278;2024-03-23T04:54:13;9.18;;;3.13;;
38717;SDS011;24468;52.128;9.278;2024-03-23T04:56:39;8.43;;;3.13;;
38717;SDS011;24468;52.128;9.278;2024-03-23T04:59:04;8.35;;;2.88;;
38717;SDS011;24468;52.128;9.278;2024-03-23T05:01:30;6.72;;;3.15;;
38717;SDS011;24468;52.128;9.278;2024-03-23T05:03:57;3.78;;;2.20;;
38717;SDS011;24468;52.128;9.278;2024-03-23T05:06:23;7.60;;;2.30;;
38717;SDS011;24468;52.128;9.278;2024-03-23T05:08:49;8.15;;;2.47;;
38717;SDS011;24468;52.128;9.278;2024-03-23T05:11:15;7.57;;;2.40;;
38717;SDS011;24468;52.128;9.278;2024-03-23T05:13:41;8.23;;;2.65;;
38717;SDS011;24468;52.128;9.278;2024-03-23T05:16:07;11.52;;;2.70;;
38717;SDS011;24468;52.128;9.278;2024-03-23T05:18:33;7.35;;;2.60;;
38717;SDS011;24468;52.128;9.278;2024-03-23T05:20:59;7.75;;;2.90;;
38717;SDS011;24468;52.128;9.278;2024-03-23T05:23:25;7.32;;;2.85;;
38717;SDS011;24468;52.128;9.278;2024-03-23T05:25:52;6.95;;;3.60;;
38717;SDS011;24468;52.128;9.278;2024-03-23T05:28:18;6.70;;;2.05;;
38717;SDS011;24468;52.128;9.278;2024-03-23T05:30:44;9.77;;;2.38;;
38717;SDS011;24468;52.128;9.278;2024-03-23T05:33:20;6.88;;;2.40;;
38717;SDS011;24468;52.128;9.278;2024-03-23T05:35:46;7.72;;;2.47;;
38717;SDS011;24468;52.128;9.278;2024-03-23T05:38:12;6.50;;;2.67;;
38717;SDS011;24468;52.128;9.278;2024-03-23T05:40:39;10.23;;;3.58;;
38717;SDS011;24468;52.128;9.278;2024-03-23T05:43:05;14.27;;;4.68;;
38717;SDS011;24468;52.128;9.278;2024-03-23T05:45:31;9.80;;;3.50;;
38717;SDS011;24468;52.128;9.278;2024-03-23T05:47:58;10.30;;;3.53;;
38717;SDS011;24468;52.128;9.278;2024-03-23T05:50:23;11.05;;;3.72;;
38717;SDS011;24468;52.128;9.278;2024-03-23T05:52:49;4.93;;;2.92;;
38717;SDS011;24468;52.128;9.278;2024-03-23T05:55:15;9.60;;;3.33;;
38717;SDS011;24468;52.128;9.278;2024-03-23T05:57:41;14.40;;;3.33;;
38717;SDS011;24468;52.128;9.278;2024-03-23T06:00:07;11.05;;;3.45;;
38717;SDS011;24468;52.128;9.278;2024-03-23T06:02:44;7.82;;;3.40;;
38717;SDS011;24468;52.128;9.278;2024-03-23T06:05:10;10.80;;;3.72;;
38717;SDS011;24468;52.128;9.278;2024-03-23T06:07:36;9.45;;;4.22;;
38717;SDS011;24468;52.128;9.278;2024-03-23T06:10:02;10.13;;;5.22;;
38717;SDS011;24468;52.128;9.278;2024-03-23T06:12:28;9.55;;;4.20;;
38717;SDS011;24468;52.128;9.278;2024-03-23T06:14:54;12.15;;;4.22;;
38717;SDS011;24468;52.128;9.278;2024-03-23T06:17:19;10.68;;;4.10;;
38717;SDS011;24468;52.128;9.278;2024-03-23T06:19:45;10.40;;;4.30;;
38717;SDS011;24468;52.128;9.278;2024-03-23T06:22:11;13.27;;;5.65;;
38717;SDS011;24468;52.128;9.278;2024-03-23T06:24:37;13.05;;;4.47;;
38717;SDS011;24468;52.128;9.278;2024-03-23T06:27:02;12.95;;;5.25;;
38717;SDS011;24468;52.128;9.278;2024-03-23T06:29:29;17.42;;;7.15;;
38717;SDS011;24468;52.128;9.278;2024-03-23T06:31:55;18.27;;;8.27;;
38717;SDS011;24468;52.128;9.278;2024-03-23T06:34:20;22.38;;;6.05;;
38717;SDS011;24468;52.128;9.278;2024-03-23T06:36:50;29.35;;;8.45;;
38717;SDS011;24468;52.128;9.278;2024-03-23T06:39:15;18.15;;;6.88;;
38717;SDS011;24468;52.128;9.278;2024-03-23T06:41:51;18.38;;;7.18;;
38717;SDS011;24468;52.128;9.278;2024-03-23T06:44:18;23.02;;;6.75;;
38717;SDS011;24468;52.128;9.278;2024-03-23T06:46:44;14.18;;;6.38;;
38717;SDS011;24468;52.128;9.278;2024-03-23T06:49:10;18.33;;;5.80;;
38717;SDS011;24468;52.128;9.278;2024-03-23T06:51:37;20.15;;;5.45;;
38717;SDS011;24468;52.128;9.278;2024-03-23T06:54:03;17.88;;;4.85;;
38717;SDS011;24468;52.128;9.278;2024-03-23T06:56:30;18.17;;;5.93;;
38717;SDS011;24468;52.128;9.278;2024-03-23T06:58:56;14.20;;;5.15;;
38717;SDS011;24468;52.128;9.278;2024-03-23T07:01:22;19.17;;;5.97;;
38717;SDS011;24468;52.128;9.278;2024-03-23T07:03:48;23.55;;;5.93;;
38717;SDS011;24468;52.128;9.278;2024-03-23T07:06:13;17.27;;;7.10;;
38717;SDS011;24468;52.128;9.278;2024-03-23T07:08:39;13.68;;;6.97;;
38717;SDS011;24468;52.128;9.278;2024-03-23T07:11:05;14.15;;;6.35;;
38717;SDS011;24468;52.128;9.278;2024-03-23T07:13:30;14.48;;;5.60;;
38717;SDS011;24468;52.128;9.278;2024-03-23T07:15:56;11.48;;;5.63;;
38717;SDS011;24468;52.128;9.278;2024-03-23T07:18:23;15.38;;;6.05;;
38717;SDS011;24468;52.128;9.278;2024-03-23T07:20:55;19.05;;;8.15;;
38717;SDS011;24468;52.128;9.278;2024-03-23T07:23:21;18.23;;;5.63;;
38717;SDS011;24468;52.128;9.278;2024-03-23T07:28:24;11.35;;;5.95;;
38717;SDS011;24468;52.128;9.278;2024-03-23T07:31:05;14.43;;;5.53;;
38717;SDS011;24468;52.128;9.278;2024-03-23T07:33:36;14.90;;;4.82;;
38717;SDS011;24468;52.128;9.278;2024-03-23T07:36:06;25.02;;;7.88;;
38717;SDS011;24468;52.128;9.278;2024-03-23T07:38:32;25.35;;;7.35;;
38717;SDS011;24468;52.128;9.278;2024-03-23T07:41:19;13.32;;;5.95;;
38717;SDS011;24468;52.128;9.278;2024-03-23T07:43:46;17.20;;;5.15;;
38717;SDS011;24468;52.128;9.278;2024-03-23T07:46:12;36.22;;;7.32;;
38717;SDS011;24468;52.128;9.278;2024-03-23T07:48:39;24.98;;;6.88;;
38717;SDS011;24468;52.128;9.278;2024-03-23T07:51:11;18.33;;;6.72;;
38717;SDS011;24468;52.128;9.278;2024-03-23T07:53:43;16.75;;;5.60;;
38717;SDS011;24468;52.128;9.278;2024-03-23T07:56:13;11.85;;;5.35;;
38717;SDS011;24468;52.128;9.278;2024-03-23T07:58:40;13.70;;;4.75;;
38717;SDS011;24468;52.128;9.278;2024-03-23T08:01:10;16.15;;;6.10;;
38717;SDS011;24468;52.128;9.278;2024-03-23T08:03:39;19.50;;;7.00;;
38717;SDS011;24468;52.128;9.278;2024-03-23T08:06:14;22.40;;;6.22;;
38717;SDS011;24468;52.128;9.278;2024-03-23T08:08:54;32.13;;;5.45;;
38717;SDS011;24468;52.128;9.278;2024-03-23T08:11:30;18.98;;;5.70;;
38717;SDS011;24468;52.128;9.278;2024-03-23T08:13:58;14.45;;;5.32;;
38717;SDS011;24468;52.128;9.278;2024-03-23T08:16:23;21.45;;;6.00;;
38717;SDS011;24468;52.128;9.278;2024-03-23T08:18:52;18.65;;;5.85;;
38717;SDS011;24468;52.128;9.278;2024-03-23T08:21:18;14.40;;;5.95;;
38717;SDS011;24468;52.128;9.278;2024-03-23T08:23:44;13.70;;;6.00;;
38717;SDS011;24468;52.128;9.278;2024-03-23T08:26:10;14.15;;;5.65;;
38717;SDS011;24468;52.128;9.278;2024-03-23T08:28:38;13.85;;;6.22;;
38717;SDS011;24468;52.128;9.278;2024-03-23T08:31:04;14.77;;;6.50;;
38717;SDS011;24468;52.128;9.278;2024-03-23T08:33:32;26.70;;;8.90;;
38717;SDS011;24468;52.128;9.278;2024-03-23T08:35:59;19.23;;;7.13;;
38717;SDS011;24468;52.128;9.278;2024-03-23T08:38:27;14.85;;;6.00;;
38717;SDS011;24468;52.128;9.278;2024-03-23T08:40:57;18.02;;;6.25;;
38717;SDS011;24468;52.128;9.278;2024-03-23T08:43:23;20.42;;;6.72;;
38717;SDS011;24468;52.128;9.278;2024-03-23T08:45:49;16.00;;;6.30;;
38717;SDS011;24468;52.128;9.278;2024-03-23T08:48:15;18.35;;;6.28;;
38717;SDS011;24468;52.128;9.278;2024-03-23T08:50:41;17.05;;;5.75;;
38717;SDS011;24468;52.128;9.278;2024-03-23T08:53:06;15.27;;;5.75;;
38717;SDS011;24468;52.128;9.278;2024-03-23T08:55:32;16.77;;;5.22;;
38717;SDS011;24468;52.128;9.278;2024-03-23T08:57:57;21.90;;;6.25;;
38717;SDS011;24468;52.128;9.278;2024-03-23T09:00:23;20.15;;;6.43;;
38717;SDS011;24468;52.128;9.278;2024-03-23T09:02:48;10.32;;;4.75;;
38717;SDS011;24468;52.128;9.278;2024-03-23T09:05:15;16.30;;;4.80;;
38717;SDS011;24468;52.128;9.278;2024-03-23T09:07:40;15.13;;;4.47;;
38717;SDS011;24468;52.128;9.278;2024-03-23T09:10:06;12.90;;;4.07;;
38717;SDS011;24468;52.128;9.278;2024-03-23T09:12:32;15.68;;;4.88;;
38717;SDS011;24468;52.128;9.278;2024-03-23T09:14:58;20.83;;;5.25;;
38717;SDS011;24468;52.128;9.278;2024-03-23T09:17:23;15.50;;;4.65;;
38717;SDS011;24468;52.128;9.278;2024-03-23T09:19:49;14.82;;;4.82;;
38717;SDS011;24468;52.128;9.278;2024-03-23T09:22:14;10.88;;;4.43;;
38717;SDS011;24468;52.128;9.278;2024-03-23T09:24:40;9.13;;;3.30;;
38717;SDS011;24468;52.128;9.278;2024-03-23T09:27:05;11.40;;;4.53;;
38717;SDS011;24468;52.128;9.278;2024-03-23T09:29:31;13.98;;;4.82;;
38717;SDS011;24468;52.128;9.278;2024-03-23T09:31:57;7.40;;;3.25;;
38717;SDS011;24468;52.128;9.278;2024-03-23T09:34:22;14.02;;;4.00;;
38717;SDS011;24468;52.128;9.278;2024-03-23T09:36:51;11.15;;;4.47;;
38717;SDS011;24468;52.128;9.278;2024-03-23T09:39:17;13.68;;;4.13;;
38717;SDS011;24468;52.128;9.278;2024-03-23T09:41:44;13.13;;;3.67;;
38717;SDS011;24468;52.128;9.278;2024-03-23T09:44:10;12.45;;;4.40;;
38717;SDS011;24468;52.128;9.278;2024-03-23T09:46:35;17.50;;;4.18;;
38717;SDS011;24468;52.128;9.278;2024-03-23T09:49:01;12.95;;;4.15;;
38717;SDS011;24468;52.128;9.278;2024-03-23T09:51:29;10.23;;;4.55;;
38717;SDS011;24468;52.128;9.278;2024-03-23T09:53:56;14.38;;;4.03;;
38717;SDS011;24468;52.128;9.278;2024-03-23T09:56:22;8.05;;;3.05;;
38717;SDS011;24468;52.128;9.278;2024-03-23T09:58:48;7.32;;;3.15;;
38717;SDS011;24468;52.128;9.278;2024-03-23T10:01:14;6.95;;;2.72;;
38717;SDS011;24468;52.128;9.278;2024-03-23T10:03:43;8.30;;;3.05;;
38717;SDS011;24468;52.128;9.278;2024-03-23T10:06:10;8.00;;;2.88;;
38717;SDS011;24468;52.128;9.278;2024-03-23T10:08:36;7.45;;;2.80;;
38717;SDS011;24468;52.128;9.278;2024-03-23T10:11:12;5.22;;;2.25;;
38717;SDS011;24468;52.128;9.278;2024-03-23T10:13:43;12.38;;;3.63;;
38717;SDS011;24468;52.128;9.278;2024-03-23T10:16:11;8.98;;;3.55;;
38717;SDS011;24468;52.128;9.278;2024-03-23T10:18:40;8.02;;;2.95;;
38717;SDS011;24468;52.128;9.278;2024-03-23T10:21:06;10.00;;;3.22;;
38717;SDS011;24468;52.128;9.278;2024-03-23T10:23:36;7.63;;;3.13;;
38717;SDS011;24468;52.128;9.278;2024-03-23T10:26:17;10.25;;;3.30;;
38717;SDS011;24468;52.128;9.278;2024-03-23T10:31:16;8.90;;;2.83;;
38717;SDS011;24468;52.128;9.278;2024-03-23T10:33:48;8.27;;;2.30;;
38717;SDS011;24468;52.128;9.278;2024-03-23T10:36:14;7.82;;;2.83;;
38717;SDS011;24468;52.128;9.278;2024-03-23T10:38:41;8.27;;;2.13;;
38717;SDS011;24468;52.128;9.278;2024-03-23T10:41:08;5.10;;;1.70;;
38717;SDS011;24468;52.128;9.278;2024-03-23T10:43:35;7.93;;;2.08;;
38717;SDS011;24468;52.128;9.278;2024-03-23T10:46:02;6.97;;;1.70;;
38717;SDS011;24468;52.128;9.278;2024-03-23T10:48:28;6.13;;;1.88;;
38717;SDS011;24468;52.128;9.278;2024-03-23T10:50:54;5.97;;;1.35;;
38717;SDS011;24468;52.128;9.278;2024-03-23T10:53:25;2.92;;;1.20;;
38717;SDS011;24468;52.128;9.278;2024-03-23T10:55:52;4.25;;;0.80;;
38717;SDS011;24468;52.128;9.278;2024-03-23T10:58:42;2.05;;;1.13;;
38717;SDS011;24468;52.128;9.278;2024-03-23T11:01:12;4.28;;;1.50;;
38717;SDS011;24468;52.128;9.278;2024-03-23T11:03:38;1.95;;;1.00;;
38717;SDS011;24468;52.128;9.278;2024-03-23T11:06:09;2.80;;;1.20;;
38717;SDS011;24468;52.128;9.278;2024-03-23T11:08:36;2.75;;;1.02;;
38717;SDS011;24468;52.128;9.278;2024-03-23T11:13:49;6.10;;;2.47;;
38717;SDS011;24468;52.128;9.278;2024-03-23T11:22:01;8.25;;;2.00;;
38717;SDS011;24468;52.128;9.278;2024-03-23T11:24:28;8.50;;;2.85;;
38717;SDS011;24468;52.128;9.278;2024-03-23T11:26:54;4.43;;;2.13;;
38717;SDS011;24468;52.128;9.278;2024-03-23T11:29:20;6.32;;;1.48;;
38717;SDS011;24468;52.128;9.278;2024-03-23T11:31:49;3.08;;;1.23;;
38717;SDS011;24468;52.128;9.278;2024-03-23T11:34:16;2.58;;;1.17;;
38717;SDS011;24468;52.128;9.278;2024-03-23T11:36:44;6.18;;;1.20;;
38717;SDS011;24468;52.128;9.278;2024-03-23T11:39:14;1.70;;;1.23;;
38717;SDS011;24468;52.128;9.278;2024-03-23T11:41:48;3.13;;;1.20;;
38717;SDS011;24468;52.128;9.278;2024-03-23T11:44:27;7.45;;;1.58;;
38717;SDS011;24468;52.128;9.278;2024-03-23T11:46:52;2.85;;;1.50;;
38717;SDS011;24468;52.128;9.278;2024-03-23T11:51:55;5.05;;;2.05;;
38717;SDS011;24468;52.128;9.278;2024-03-23T11:54:25;5.15;;;1.75;;
38717;SDS011;24468;52.128;9.278;2024-03-23T11:56:58;4.97;;;1.77;;
38717;SDS011;24468;52.128;9.278;2024-03-23T11:59:34;5.53;;;1.90;;
38717;SDS011;24468;52.128;9.278;2024-03-23T12:02:12;4.03;;;1.80;;
38717;SDS011;24468;52.128;9.278;2024-03-23T12:04:39;7.13;;;2.03;;
38717;SDS011;24468;52.128;9.278;2024-03-23T12:09:44;5.65;;;1.90;;
38717;SDS011;24468;52.128;9.278;2024-03-23T12:14:42;2.10;;;1.05;;
38717;SDS011;24468;52.128;9.278;2024-03-23T12:17:26;2.55;;;0.80;;
38717;SDS011;24468;52.128;9.278;2024-03-23T12:19:52;2.75;;;1.10;;
38717;SDS011;24468;52.128;9.278;2024-03-23T12:22:21;1.90;;;0.82;;
38717;SDS011;24468;52.128;9.278;2024-03-23T12:24:48;2.83;;;0.52;;
38717;SDS011;24468;52.128;9.278;2024-03-23T12:27:14;1.10;;;0.82;;
38717;SDS011;24468;52.128;9.278;2024-03-23T12:29:40;3.78;;;1.45;;
38717;SDS011;24468;52.128;9.278;2024-03-23T12:32:11;2.43;;;1.37;;
38717;SDS011;24468;52.128;9.278;2024-03-23T12:34:37;5.03;;;2.30;;
38717;SDS011;24468;52.128;9.278;2024-03-23T12:37:02;3.70;;;1.48;;
38717;SDS011;24468;52.128;9.278;2024-03-23T12:39:28;2.58;;;1.02;;
38717;SDS011;24468;52.128;9.278;2024-03-23T12:41:54;2.78;;;1.20;;
38717;SDS011;24468;52.128;9.278;2024-03-23T12:44:20;6.97;;;2.20;;
38717;SDS011;24468;52.128;9.278;2024-03-23T12:46:46;3.65;;;1.35;;
38717;SDS011;24468;52.128;9.278;2024-03-23T12:49:11;2.97;;;1.38;;
38717;SDS011;24468;52.128;9.278;2024-03-23T12:51:37;3.05;;;1.33;;
38717;SDS011;24468;52.128;9.278;2024-03-23T12:54:03;3.55;;;1.48;;
38717;SDS011;24468;52.128;9.278;2024-03-23T12:56:29;3.13;;;1.30;;
38717;SDS011;24468;52.128;9.278;2024-03-23T12:58:54;3.38;;;1.77;;
38717;SDS011;24468;52.128;9.278;2024-03-23T13:01:22;2.80;;;1.35;;
38717;SDS011;24468;52.128;9.278;2024-03-23T13:03:51;4.28;;;1.27;;
38717;SDS011;24468;52.128;9.278;2024-03-23T13:06:16;2.97;;;1.52;;
38717;SDS011;24468;52.128;9.278;2024-03-23T13:08:46;5.13;;;1.70;;
38717;SDS011;24468;52.128;9.278;2024-03-23T13:11:12;3.88;;;1.73;;
38717;SDS011;24468;52.128;9.278;2024-03-23T13:13:39;7.68;;;2.83;;
38717;SDS011;24468;52.128;9.278;2024-03-23T13:16:07;4.40;;;1.67;;
38717;SDS011;24468;52.128;9.278;2024-03-23T13:18:33;5.72;;;1.58;;
38717;SDS011;24468;52.128;9.278;2024-03-23T13:20:59;7.70;;;2.00;;
38717;SDS011;24468;52.128;9.278;2024-03-23T13:23:24;2.50;;;1.83;;
38717;SDS011;24468;52.128;9.278;2024-03-23T13:25:54;5.63;;;2.40;;
38717;SDS011;24468;52.128;9.278;2024-03-23T13:28:24;5.57;;;1.77;;
38717;SDS011;24468;52.128;9.278;2024-03-23T13:30:52;6.22;;;2.33;;
38717;SDS011;24468;52.128;9.278;2024-03-23T13:33:19;5.53;;;2.47;;
38717;SDS011;24468;52.128;9.278;2024-03-23T13:35:51;8.98;;;2.47;;
38717;SDS011;24468;52.128;9.278;2024-03-23T13:38:18;4.18;;;1.98;;
38717;SDS011;24468;52.128;9.278;2024-03-23T13:40:53;4.43;;;2.22;;
38717;SDS011;24468;52.128;9.278;2024-03-23T13:43:26;3.20;;;1.85;;
38717;SDS011;24468;52.128;9.278;2024-03-23T13:45:53;3.40;;;2.33;;
38717;SDS011;24468;52.128;9.278;2024-03-23T13:48:24;5.05;;;1.70;;
38717;SDS011;24468;52.128;9.278;2024-03-23T13:51:01;4.80;;;1.80;;
38717;SDS011;24468;52.128;9.278;2024-03-23T13:53:29;4.32;;;1.80;;
38717;SDS011;24468;52.128;9.278;2024-03-23T13:55:55;2.80;;;1.98;;
38717;SDS011;24468;52.128;9.278;2024-03-23T13:58:21;3.72;;;1.70;;
38717;SDS011;24468;52.128;9.278;2024-03-23T14:00:48;3.67;;;1.55;;
38717;SDS011;24468;52.128;9.278;2024-03-23T14:03:14;3.83;;;1.75;;
38717;SDS011;24468;52.128;9.278;2024-03-23T14:05:40;1.08;;;0.60;;
38717;SDS011;24468;52.128;9.278;2024-03-23T14:08:06;1.02;;;0.25;;
38717;SDS011;24468;52.128;9.278;2024-03-23T14:10:33;2.25;;;0.40;;
38717;SDS011;24468;52.128;9.278;2024-03-23T14:13:00;1.70;;;0.45;;
38717;SDS011;24468;52.128;9.278;2024-03-23T14:15:27;1.48;;;0.60;;
38717;SDS011;24468;52.128;9.278;2024-03-23T14:17:52;1.63;;;0.38;;
38717;SDS011;24468;52.128;9.278;2024-03-23T14:20:19;1.33;;;0.63;;
38717;SDS011;24468;52.128;9.278;2024-03-23T14:22:46;1.13;;;0.47;;
38717;SDS011;24468;52.128;9.278;2024-03-23T14:25:12;0.77;;;0.38;;
38717;SDS011;24468;52.128;9.278;2024-03-23T14:27:37;1.42;;;0.55;;
38717;SDS011;24468;52.128;9.278;2024-03-23T14:30:03;1.48;;;0.45;;
38717;SDS011;24468;52.128;9.278;2024-03-23T14:32:30;1.00;;;0.52;;
38717;SDS011;24468;52.128;9.278;2024-03-23T14:34:59;0.90;;;0.43;;
38717;SDS011;24468;52.128;9.278;2024-03-23T14:37:26;0.47;;;0.30;;
38717;SDS011;24468;52.128;9.278;2024-03-23T14:39:51;1.88;;;0.55;;
38717;SDS011;24468;52.128;9.278;2024-03-23T14:42:17;2.65;;;0.80;;
38717;SDS011;24468;52.128;9.278;2024-03-23T14:44:43;1.95;;;1.08;;
38717;SDS011;24468;52.128;9.278;2024-03-23T14:47:08;2.72;;;0.68;;
38717;SDS011;24468;52.128;9.278;2024-03-23T14:49:34;4.38;;;1.40;;
38717;SDS011;24468;52.128;9.278;2024-03-23T14:51:59;2.92;;;0.90;;
38717;SDS011;24468;52.128;9.278;2024-03-23T14:54:25;1.92;;;0.77;;
38717;SDS011;24468;52.128;9.278;2024-03-23T14:56:50;7.47;;;1.27;;
38717;SDS011;24468;52.128;9.278;2024-03-23T14:59:17;1.10;;;1.00;;
38717;SDS011;24468;52.128;9.278;2024-03-23T15:01:44;2.63;;;1.05;;
38717;SDS011;24468;52.128;9.278;2024-03-23T15:04:10;4.03;;;1.25;;
38717;SDS011;24468;52.128;9.278;2024-03-23T15:06:35;3.67;;;1.10;;
38717;SDS011;24468;52.128;9.278;2024-03-23T15:09:01;3.38;;;0.90;;
38717;SDS011;24468;52.128;9.278;2024-03-23T15:11:26;2.17;;;0.80;;
38717;SDS011;24468;52.128;9.278;2024-03-23T15:13:52;3.60;;;1.17;;
38717;SDS011;24468;52.128;9.278;2024-03-23T15:16:18;4.30;;;0.82;;
38717;SDS011;24468;52.128;9.278;2024-03-23T15:18:45;3.30;;;1.20;;
38717;SDS011;24468;52.128;9.278;2024-03-23T15:21:11;2.13;;;0.47;;
38717;SDS011;24468;52.128;9.278;2024-03-23T15:23:37;1.73;;;0.55;;
38717;SDS011;24468;52.128;9.278;2024-03-23T15:26:03;2.03;;;0.60;;
38717;SDS011;24468;52.128;9.278;2024-03-23T15:28:30;6.00;;;1.13;;
38717;SDS011;24468;52.128;9.278;2024-03-23T15:31:15;3.50;;;1.20;;
38717;SDS011;24468;52.128;9.278;2024-03-23T15:33:40;1.40;;;1.00;;
38717;SDS011;24468;52.128;9.278;2024-03-23T15:36:06;5.03;;;1.00;;
38717;SDS011;24468;52.128;9.278;2024-03-23T15:38:32;5.45;;;1.38;;
38717;SDS011;24468;52.128;9.278;2024-03-23T15:40:58;1.80;;;0.85;;
38717;SDS011;24468;52.128;9.278;2024-03-23T15:43:24;2.33;;;0.90;;
38717;SDS011;24468;52.128;9.278;2024-03-23T15:45:57;3.42;;;0.90;;
38717;SDS011;24468;52.128;9.278;2024-03-23T15:48:25;3.53;;;1.08;;
38717;SDS011;24468;52.128;9.278;2024-03-23T15:50:54;1.90;;;1.13;;
38717;SDS011;24468;52.128;9.278;2024-03-23T15:53:24;2.60;;;1.40;;
38717;SDS011;24468;52.128;9.278;2024-03-23T15:55:54;1.45;;;0.57;;